Terminal Aerodrome Forecast
Issued by NWS

Home | Current Version | Previous Version | Text Only | Print | Product List | Glossary On
Versions: 1 2 3 4 5 6 7 8 9 10 11 12 13 14
507
FTUS43 KOAX 091121
TAFBFF
TAF
KBFF 091121Z 0912/1012 11008KT P6SM OVC050
     FM091400 VRB05KT P6SM OVC050
     FM091800 05005KT P6SM SCT050
     FM100000 08005KT P6SM OVC050
     FM100400 11010KT P6SM VCSH OVC020=

USA.gov is the U.S. government's official web portal to all federal, state and local government web resources and services.